createdAt,value
2022-12-03T00:02:16.203Z,3.61
2022-12-03T00:05:05.053Z,3.57
2022-12-03T00:07:53.650Z,3.62
2022-12-03T00:10:42.199Z,3.70
2022-12-03T00:13:30.666Z,3.64
2022-12-03T00:16:19.224Z,3.79
2022-12-03T00:19:09.081Z,3.93
2022-12-03T00:21:57.613Z,3.84
2022-12-03T00:24:46.094Z,3.87
2022-12-03T00:27:34.527Z,3.95
2022-12-03T00:30:22.981Z,3.91
2022-12-03T00:33:11.444Z,3.89
2022-12-03T00:36:01.264Z,3.89
2022-12-03T00:38:49.783Z,3.77
2022-12-03T00:41:38.282Z,3.79
2022-12-03T00:44:27.038Z,3.69
2022-12-03T00:47:15.530Z,3.79
2022-12-03T00:50:03.995Z,3.72
2022-12-03T00:52:53.830Z,3.79
2022-12-03T00:55:42.251Z,3.66
2022-12-03T00:58:30.723Z,3.70
2022-12-03T01:01:19.192Z,3.83
2022-12-03T01:04:07.776Z,3.75
2022-12-03T01:06:56.211Z,3.80
2022-12-03T01:09:46.040Z,3.82
2022-12-03T01:12:34.488Z,3.79
2022-12-03T01:15:22.947Z,3.67
2022-12-03T01:18:11.491Z,3.68
2022-12-03T01:20:59.954Z,3.55
2022-12-03T01:23:48.446Z,3.75
2022-12-03T01:26:38.421Z,3.69
2022-12-03T01:29:26.854Z,3.71
2022-12-03T01:32:17.017Z,3.82
2022-12-03T01:35:06.111Z,3.64
2022-12-03T01:37:54.553Z,3.81
2022-12-03T01:40:43.028Z,3.88
2022-12-03T01:43:32.912Z,3.76
2022-12-03T01:46:23.831Z,3.78
2022-12-03T01:49:16.564Z,3.87
2022-12-03T01:52:05.125Z,3.83
2022-12-03T01:54:56.164Z,3.68
2022-12-03T01:57:46.767Z,3.70
2022-12-03T02:00:36.593Z,3.82
2022-12-03T02:03:26.635Z,3.70
2022-12-03T02:06:17.333Z,3.90
2022-12-03T02:09:08.478Z,3.80
2022-12-03T02:11:56.904Z,3.91
2022-12-03T02:14:45.458Z,3.79
2022-12-03T02:17:35.357Z,3.86
2022-12-03T02:20:23.888Z,3.81
2022-12-03T02:23:15.170Z,3.81
2022-12-03T02:26:05.330Z,3.93
2022-12-03T02:28:53.793Z,3.93
2022-12-03T02:31:43.372Z,3.88
2022-12-03T02:34:39.549Z,3.95
2022-12-03T02:37:31.019Z,3.69
2022-12-03T02:40:21.409Z,3.90
2022-12-03T02:43:11.594Z,3.81
2022-12-03T02:46:01.244Z,3.86
2022-12-03T02:48:49.688Z,3.84
2022-12-03T02:51:38.119Z,3.77
2022-12-03T02:54:26.776Z,3.71
2022-12-03T02:57:16.082Z,3.68
2022-12-03T03:00:08.421Z,3.46
2022-12-03T03:02:56.905Z,3.74
2022-12-03T03:05:46.229Z,3.75
2022-12-03T03:08:35.139Z,3.72
2022-12-03T03:11:23.723Z,3.86
2022-12-03T03:14:12.280Z,3.76
2022-12-03T03:17:02.082Z,3.89
2022-12-03T03:19:50.523Z,3.85
2022-12-03T03:22:40.423Z,3.88
2022-12-03T03:25:29.762Z,3.72
2022-12-03T03:28:19.296Z,3.53
2022-12-03T03:31:09.530Z,3.79
2022-12-03T03:33:59.399Z,3.79
2022-12-03T03:36:47.961Z,3.69
2022-12-03T03:39:36.420Z,3.82
2022-12-03T03:42:25.202Z,3.90
2022-12-03T03:45:13.812Z,3.85
2022-12-03T03:48:02.531Z,3.89
2022-12-03T03:50:52.628Z,3.77
2022-12-03T03:53:43.052Z,3.76
2022-12-03T03:56:31.709Z,3.13
2022-12-03T03:59:20.247Z,3.83
2022-12-03T04:02:17.575Z,3.79
2022-12-03T04:05:07.401Z,3.78
2022-12-03T04:07:58.670Z,3.77
2022-12-03T04:11:04.908Z,3.77
2022-12-03T04:13:53.373Z,3.73
2022-12-03T04:16:41.938Z,3.67
2022-12-03T04:19:30.510Z,3.70
2022-12-03T04:22:36.661Z,3.71
2022-12-03T04:25:44.111Z,3.68
2022-12-03T04:28:50.868Z,3.71
2022-12-03T04:31:57.163Z,3.58
2022-12-03T04:35:03.413Z,3.71
2022-12-03T04:37:51.966Z,3.68
2022-12-03T04:40:59.579Z,3.69
2022-12-03T04:44:01.922Z,3.77
2022-12-03T04:46:50.384Z,3.33
2022-12-03T04:49:40.308Z,3.77
2022-12-03T04:52:28.739Z,3.66
2022-12-03T04:55:17.242Z,3.77
2022-12-03T04:58:07.038Z,3.85
2022-12-03T05:00:55.543Z,3.78
2022-12-03T05:03:44.027Z,3.78
2022-12-03T05:06:32.472Z,3.80
2022-12-03T05:09:21.003Z,3.94
2022-12-03T05:12:09.477Z,3.93
2022-12-03T05:14:59.301Z,3.82
2022-12-03T05:17:47.807Z,3.79
2022-12-03T05:20:51.536Z,3.75
2022-12-03T05:23:41.588Z,3.65
2022-12-03T05:26:30.070Z,3.73
2022-12-03T05:29:18.544Z,3.68
2022-12-03T05:32:08.769Z,3.68
2022-12-03T05:34:57.347Z,3.68
2022-12-03T05:37:45.868Z,3.72
2022-12-03T05:40:34.292Z,3.78
2022-12-03T05:43:21.735Z,3.71
2022-12-03T05:46:10.220Z,3.62
2022-12-03T05:49:00.046Z,3.55
2022-12-03T05:51:51.425Z,3.82
2022-12-03T05:54:42.123Z,3.75
2022-12-03T05:57:30.618Z,3.71
2022-12-03T06:00:21.128Z,3.69
2022-12-03T06:03:09.781Z,3.58
2022-12-03T06:05:59.842Z,3.66
2022-12-03T06:08:48.300Z,3.41
2022-12-03T06:11:37.250Z,3.41
2022-12-03T06:14:25.678Z,3.50
2022-12-03T06:17:14.118Z,3.48
2022-12-03T06:20:02.569Z,3.41
2022-12-03T06:22:52.400Z,3.37
2022-12-03T06:25:40.854Z,3.29
2022-12-03T06:28:29.295Z,3.14
2022-12-03T06:31:17.890Z,3.11
2022-12-03T06:34:06.430Z,3.15
2022-12-03T06:36:54.879Z,3.20
2022-12-03T06:39:44.649Z,3.06
2022-12-03T06:42:33.090Z,2.99
2022-12-03T06:45:21.618Z,3.00
2022-12-03T06:48:10.046Z,2.89
2022-12-03T06:50:58.546Z,2.81
2022-12-03T06:53:47.012Z,2.72
2022-12-03T06:56:43.543Z,2.63
2022-12-03T06:59:36.370Z,2.65
2022-12-03T07:02:25.071Z,2.65
2022-12-03T07:05:13.541Z,2.62
2022-12-03T07:08:02.131Z,2.53
2022-12-03T07:10:50.679Z,2.60
2022-12-03T07:13:40.468Z,2.61
2022-12-03T07:16:29.450Z,2.60
2022-12-03T07:19:17.996Z,2.50
2022-12-03T07:22:06.731Z,2.45
2022-12-03T07:24:55.551Z,2.45
2022-12-03T07:27:44.130Z,2.46
2022-12-03T07:30:33.952Z,2.41
2022-12-03T07:33:22.425Z,2.44
2022-12-03T07:36:11.267Z,2.33
2022-12-03T07:38:59.755Z,2.40
2022-12-03T07:41:48.234Z,2.39
2022-12-03T07:44:36.771Z,2.37
2022-12-03T07:47:26.563Z,2.36
2022-12-03T07:50:15.214Z,2.40
2022-12-03T07:53:03.696Z,2.41
2022-12-03T07:55:52.301Z,2.47
2022-12-03T07:58:40.798Z,2.50
2022-12-03T08:01:29.338Z,2.51
2022-12-03T08:04:21.222Z,2.57
2022-12-03T08:07:09.837Z,2.60
2022-12-03T08:10:00.489Z,2.63
2022-12-03T08:12:48.937Z,2.71
2022-12-03T08:15:39.650Z,2.75
2022-12-03T08:18:29.181Z,2.85
2022-12-03T08:21:20.701Z,2.93
2022-12-03T08:24:14.617Z,2.99
2022-12-03T08:27:03.100Z,3.07
2022-12-03T08:29:51.555Z,3.09
2022-12-03T08:32:40.463Z,3.09
2022-12-03T08:35:31.798Z,3.13
2022-12-03T08:38:23.415Z,3.26
2022-12-03T08:41:14.269Z,3.23
2022-12-03T08:44:10.159Z,3.44
2022-12-03T08:47:03.242Z,3.66
2022-12-03T08:49:55.387Z,2.91
2022-12-03T08:52:43.866Z,3.68
2022-12-03T08:55:36.523Z,3.75
2022-12-03T08:58:26.524Z,3.92
2022-12-03T09:01:38.593Z,3.92
2022-12-03T09:04:32.724Z,4.03
2022-12-03T09:07:21.261Z,4.07
2022-12-03T09:10:10.478Z,4.01
2022-12-03T09:13:00.290Z,4.02
2022-12-03T09:15:49.051Z,3.94
2022-12-03T09:18:37.527Z,3.76
2022-12-03T09:21:26.009Z,3.85
2022-12-03T09:24:14.551Z,4.03
2022-12-03T09:27:03.021Z,4.01
2022-12-03T09:29:52.853Z,4.17
2022-12-03T09:32:41.303Z,4.20
2022-12-03T09:35:29.825Z,4.11
2022-12-03T09:38:18.286Z,4.03
2022-12-03T09:41:06.930Z,4.23
2022-12-03T09:44:04.450Z,4.21
2022-12-03T09:46:54.926Z,4.16
2022-12-03T09:49:43.859Z,4.05
2022-12-03T09:52:33.920Z,4.17
2022-12-03T09:55:24.441Z,4.22
2022-12-03T09:58:15.849Z,4.10
2022-12-03T10:01:10.557Z,4.48
2022-12-03T10:04:00.448Z,4.16
2022-12-03T10:06:49.256Z,4.29
2022-12-03T10:09:37.970Z,4.27
2022-12-03T10:12:26.615Z,2.87
2022-12-03T10:15:17.418Z,4.60
2022-12-03T10:18:17.357Z,4.50
2022-12-03T10:21:14.249Z,4.52
2022-12-03T10:24:23.348Z,4.63
2022-12-03T10:27:22.853Z,4.64
2022-12-03T10:30:19.882Z,4.37
2022-12-03T10:33:18.656Z,4.62
2022-12-03T10:36:23.208Z,4.59
2022-12-03T10:39:14.267Z,4.26
2022-12-03T10:42:15.247Z,4.59
2022-12-03T10:45:15.321Z,4.67
2022-12-03T10:48:07.417Z,4.58
2022-12-03T10:50:57.033Z,4.82
2022-12-03T10:53:46.859Z,4.91
2022-12-03T10:56:35.319Z,4.69
2022-12-03T10:59:26.010Z,4.71
2022-12-03T11:02:21.976Z,4.74
2022-12-03T11:05:14.929Z,4.76
2022-12-03T11:08:05.178Z,4.95
2022-12-03T11:10:59.864Z,4.90
2022-12-03T11:13:51.436Z,4.96
2022-12-03T11:17:10.115Z,4.99
2022-12-03T11:19:59.136Z,5.05
2022-12-03T11:22:48.795Z,5.06
2022-12-03T11:25:50.210Z,5.06
2022-12-03T11:28:52.369Z,5.08
2022-12-03T11:31:42.732Z,4.93
2022-12-03T11:34:49.103Z,5.05
2022-12-03T11:37:37.648Z,5.05
2022-12-03T11:40:30.653Z,5.08
2022-12-03T11:43:53.908Z,5.08
2022-12-03T11:46:46.003Z,5.16
2022-12-03T11:49:48.682Z,5.16
2022-12-03T11:52:43.569Z,5.29
2022-12-03T11:55:34.637Z,5.13
2022-12-03T11:58:27.251Z,5.21
2022-12-03T12:01:17.016Z,4.75
2022-12-03T12:04:07.757Z,5.30
2022-12-03T12:07:00.045Z,5.31
2022-12-03T12:09:50.571Z,5.34
2022-12-03T12:12:40.798Z,5.26
2022-12-03T12:15:45.211Z,5.28
2022-12-03T12:18:42.001Z,5.23
2022-12-03T12:21:43.173Z,5.21
2022-12-03T12:24:41.265Z,5.32
2022-12-03T12:27:39.284Z,5.22
2022-12-03T12:30:27.798Z,5.34
2022-12-03T12:33:20.812Z,5.33
2022-12-03T12:36:10.702Z,5.16
2022-12-03T12:39:01.241Z,5.09
2022-12-03T12:41:50.211Z,5.22
2022-12-03T12:44:38.920Z,5.22
2022-12-03T12:47:27.846Z,5.13
2022-12-03T12:50:17.129Z,4.82
2022-12-03T12:53:13.431Z,5.04
2022-12-03T12:56:21.675Z,4.90
2022-12-03T12:59:12.506Z,5.00
2022-12-03T13:02:04.501Z,5.04
2022-12-03T13:04:57.158Z,5.14
2022-12-03T13:07:45.921Z,5.28
2022-12-03T13:10:37.973Z,5.18
2022-12-03T13:13:36.316Z,5.08
2022-12-03T13:16:33.054Z,5.06
2022-12-03T13:19:23.753Z,4.97
2022-12-03T13:22:14.547Z,4.96
2022-12-03T13:25:57.787Z,4.92
2022-12-03T13:28:38.458Z,4.85
2022-12-03T13:31:29.438Z,4.95
2022-12-03T13:34:20.853Z,5.04
2022-12-03T13:37:14.353Z,4.76
2022-12-03T13:40:12.799Z,4.82
2022-12-03T13:43:01.311Z,4.86
2022-12-03T13:45:52.346Z,4.90
2022-12-03T13:48:43.140Z,4.90
2022-12-03T13:51:33.390Z,4.74
2022-12-03T13:54:23.701Z,4.79
2022-12-03T13:57:12.204Z,4.63
2022-12-03T14:00:00.697Z,4.59
2022-12-03T14:02:50.783Z,4.57
2022-12-03T14:05:39.347Z,4.48
2022-12-03T14:08:27.837Z,4.41
2022-12-03T14:11:30.254Z,4.44
2022-12-03T14:14:18.974Z,4.53
2022-12-03T14:17:09.559Z,4.56
2022-12-03T14:20:00.936Z,4.59
2022-12-03T14:22:49.463Z,4.44
2022-12-03T14:25:37.967Z,4.35
2022-12-03T14:28:26.420Z,4.39
2022-12-03T14:31:15.000Z,4.39
2022-12-03T14:34:03.482Z,4.51
2022-12-03T14:36:53.323Z,4.47
2022-12-03T14:39:57.467Z,4.14
2022-12-03T14:42:46.265Z,4.23
2022-12-03T14:45:34.743Z,4.30
2022-12-03T14:48:23.261Z,4.20
2022-12-03T14:51:12.561Z,2.74
2022-12-03T14:54:02.579Z,4.37
2022-12-03T14:56:51.359Z,4.28
2022-12-03T14:59:40.621Z,4.31
2022-12-03T15:02:30.264Z,4.28
2022-12-03T15:05:28.000Z,4.39
2022-12-03T15:08:18.323Z,4.38
2022-12-03T15:11:08.452Z,4.23
2022-12-03T15:13:58.289Z,4.30
2022-12-03T15:16:46.905Z,4.26
2022-12-03T15:19:35.746Z,4.27
2022-12-03T15:22:24.211Z,4.40
2022-12-03T15:25:13.039Z,4.16
2022-12-03T15:28:05.436Z,4.16
2022-12-03T15:30:54.801Z,4.10
2022-12-03T15:33:43.399Z,4.15
2022-12-03T15:36:32.733Z,4.01
2022-12-03T15:39:22.099Z,4.07
2022-12-03T15:42:12.584Z,3.99
2022-12-03T15:45:09.525Z,3.90
2022-12-03T15:48:02.122Z,4.10
2022-12-03T15:50:51.393Z,4.23
2022-12-03T15:53:40.086Z,4.17
2022-12-03T15:56:30.216Z,4.13
2022-12-03T15:59:18.672Z,3.98
2022-12-03T16:02:09.664Z,4.09
2022-12-03T16:04:59.421Z,4.11
2022-12-03T16:07:48.072Z,4.23
2022-12-03T16:10:36.574Z,3.95
2022-12-03T16:13:25.099Z,4.06
2022-12-03T16:16:13.664Z,4.02
2022-12-03T16:19:03.592Z,4.12
2022-12-03T16:21:52.036Z,4.16
2022-12-03T16:24:40.816Z,4.23
2022-12-03T16:27:29.366Z,4.21
2022-12-03T16:30:18.346Z,4.13
2022-12-03T16:33:06.838Z,4.25
2022-12-03T16:35:57.103Z,4.20
2022-12-03T16:38:45.577Z,4.10
2022-12-03T16:41:34.600Z,4.17
2022-12-03T16:44:32.502Z,4.14
2022-12-03T16:47:21.695Z,4.13
2022-12-03T16:50:17.939Z,4.17
2022-12-03T16:53:10.959Z,4.08
2022-12-03T16:55:59.417Z,4.17
2022-12-03T16:58:47.976Z,4.10
2022-12-03T17:01:36.519Z,4.13
2022-12-03T17:04:25.142Z,4.14
2022-12-03T17:07:14.105Z,3.94
2022-12-03T17:10:04.732Z,4.02
2022-12-03T17:13:10.093Z,3.98
2022-12-03T17:16:00.694Z,3.95
2022-12-03T17:18:49.197Z,3.84
2022-12-03T17:21:37.684Z,3.87
2022-12-03T17:24:26.233Z,3.77
2022-12-03T17:27:16.089Z,3.73
2022-12-03T17:30:08.000Z,3.62
2022-12-03T17:32:56.479Z,3.64
2022-12-03T17:35:45.848Z,3.64
2022-12-03T17:38:39.082Z,3.61
2022-12-03T17:41:28.051Z,3.61
2022-12-03T17:44:20.958Z,3.78
2022-12-03T17:47:09.916Z,3.64
2022-12-03T17:49:58.356Z,3.55
2022-12-03T17:52:46.836Z,3.83
2022-12-03T17:55:41.258Z,3.62
2022-12-03T17:58:32.974Z,3.70
2022-12-03T18:01:22.871Z,3.74
2022-12-03T18:04:11.493Z,3.79
2022-12-03T18:07:02.341Z,3.82
2022-12-03T18:09:51.473Z,3.80
2022-12-03T18:12:40.458Z,3.53
2022-12-03T18:15:28.974Z,3.40
2022-12-03T18:18:18.811Z,3.57
2022-12-03T18:21:07.568Z,3.64
2022-12-03T18:23:56.237Z,3.57
2022-12-03T18:26:45.059Z,3.52
2022-12-03T18:29:33.651Z,3.45
2022-12-03T18:32:30.118Z,3.35
2022-12-03T18:35:20.675Z,3.44
2022-12-03T18:38:11.183Z,3.40
2022-12-03T18:40:59.630Z,3.26
2022-12-03T18:43:48.175Z,3.26
2022-12-03T18:46:53.128Z,3.38
2022-12-03T18:49:42.276Z,3.31
2022-12-03T18:52:32.151Z,3.34
2022-12-03T18:55:20.663Z,3.44
2022-12-03T18:58:09.154Z,3.34
2022-12-03T19:00:57.666Z,3.22
2022-12-03T19:03:46.514Z,3.25
2022-12-03T19:06:35.006Z,3.26
2022-12-03T19:09:24.926Z,3.17
2022-12-03T19:12:14.848Z,3.34
2022-12-03T19:15:04.857Z,3.21
2022-12-03T19:17:53.389Z,3.13
2022-12-03T19:20:42.376Z,3.15
2022-12-03T19:23:30.885Z,3.11
2022-12-03T19:26:20.726Z,3.11
2022-12-03T19:29:10.649Z,3.09
2022-12-03T19:31:59.218Z,3.06
2022-12-03T19:34:47.679Z,3.01
2022-12-03T19:37:36.345Z,2.86
2022-12-03T19:40:24.798Z,2.94
2022-12-03T19:43:14.621Z,2.92
2022-12-03T19:46:04.283Z,2.86
2022-12-03T19:48:52.906Z,2.92
2022-12-03T19:51:41.360Z,2.92
2022-12-03T19:54:29.852Z,2.71
2022-12-03T19:57:23.299Z,2.93
2022-12-03T20:00:15.519Z,2.90
2022-12-03T20:03:04.317Z,2.94
2022-12-03T20:05:53.048Z,2.89
2022-12-03T20:08:41.588Z,2.93
2022-12-03T20:11:32.443Z,2.85
2022-12-03T20:14:21.384Z,2.93
2022-12-03T20:17:11.365Z,2.90
2022-12-03T20:19:59.969Z,2.82
2022-12-03T20:22:48.507Z,3.01
2022-12-03T20:25:37.626Z,2.84
2022-12-03T20:28:26.677Z,2.90
2022-12-03T20:31:16.977Z,2.84
2022-12-03T20:34:07.108Z,2.87
2022-12-03T20:36:55.786Z,2.65
2022-12-03T20:39:44.547Z,2.89
2022-12-03T20:42:33.089Z,2.92
2022-12-03T20:45:21.565Z,2.64
2022-12-03T20:48:10.167Z,2.94
2022-12-03T20:51:00.031Z,3.00
2022-12-03T20:53:48.637Z,2.88
2022-12-03T20:56:39.336Z,2.92
2022-12-03T20:59:27.951Z,2.93
2022-12-03T21:02:16.649Z,2.99
2022-12-03T21:05:05.852Z,2.99
2022-12-03T21:07:55.794Z,2.71
2022-12-03T21:10:46.965Z,2.87
2022-12-03T21:13:41.130Z,2.92
2022-12-03T21:17:05.831Z,3.00
2022-12-03T21:19:40.069Z,2.99
2022-12-03T21:22:28.567Z,3.09
2022-12-03T21:25:18.803Z,3.06
2022-12-03T21:28:09.123Z,2.91
2022-12-03T21:31:01.335Z,3.05
2022-12-03T21:33:50.101Z,3.17
2022-12-03T21:36:38.601Z,3.05
2022-12-03T21:39:27.102Z,2.92
2022-12-03T21:42:34.328Z,2.82
2022-12-03T21:45:26.280Z,2.90
2022-12-03T21:48:14.931Z,2.79
2022-12-03T21:51:05.326Z,2.58
2022-12-03T21:53:54.553Z,2.78
2022-12-03T21:56:43.049Z,2.81
2022-12-03T21:59:33.215Z,2.67
2022-12-03T22:02:21.869Z,2.91
2022-12-03T22:05:14.107Z,3.07
2022-12-03T22:08:02.773Z,2.91
2022-12-03T22:10:51.330Z,2.89
2022-12-03T22:13:40.334Z,2.85
2022-12-03T22:16:30.245Z,2.85
2022-12-03T22:19:18.871Z,2.81
2022-12-03T22:22:07.318Z,2.90
2022-12-03T22:24:55.795Z,2.77
2022-12-03T22:27:44.253Z,2.93
2022-12-03T22:30:32.808Z,2.94
2022-12-03T22:33:22.881Z,2.83
2022-12-03T22:36:20.611Z,2.66
2022-12-03T22:39:10.225Z,2.92
2022-12-03T22:41:58.737Z,2.88
2022-12-03T22:44:47.158Z,3.05
2022-12-03T22:47:35.710Z,2.86
2022-12-03T22:50:25.522Z,2.90
2022-12-03T22:53:14.877Z,2.98
2022-12-03T22:56:03.341Z,2.90
2022-12-03T22:58:52.093Z,2.94
2022-12-03T23:01:41.389Z,2.89
2022-12-03T23:04:29.915Z,2.87
2022-12-03T23:07:19.713Z,2.99
2022-12-03T23:10:09.269Z,2.95
2022-12-03T23:12:57.787Z,2.78
2022-12-03T23:15:47.264Z,2.86
2022-12-03T23:18:35.733Z,2.87
2022-12-03T23:21:29.749Z,2.93
2022-12-03T23:24:20.217Z,2.88
2022-12-03T23:27:08.637Z,3.04
2022-12-03T23:29:57.276Z,2.88
2022-12-03T23:32:46.254Z,2.92
2022-12-03T23:35:34.962Z,2.74
2022-12-03T23:38:23.521Z,2.90
2022-12-03T23:41:15.238Z,2.80
2022-12-03T23:44:03.789Z,2.73
2022-12-03T23:46:52.358Z,2.80
2022-12-03T23:49:40.893Z,2.86
2022-12-03T23:52:29.443Z,2.92
2022-12-03T23:55:18.038Z,3.00
2022-12-03T23:58:07.894Z,2.91
